sensor_id;sensor_type;location;lat;lon;timestamp;pressure;altitude;pressure_sealevel;temperature;humidity
74631;BME280;63138;55.082;38.804;2023-05-24T00:01:52;99861.53;;;15.81;69.68
74631;BME280;63138;55.082;38.804;2023-05-24T00:04:46;99856.91;;;15.81;69.44
74631;BME280;63138;55.082;38.804;2023-05-24T00:07:14;99861.53;;;15.81;68.75
74631;BME280;63138;55.082;38.804;2023-05-24T00:09:41;99847.00;;;15.80;68.99
74631;BME280;63138;55.082;38.804;2023-05-24T00:12:11;99840.69;;;15.80;69.13
74631;BME280;63138;55.082;38.804;2023-05-24T00:14:37;99837.13;;;15.79;69.55
74631;BME280;63138;55.082;38.804;2023-05-24T00:17:03;99841.13;;;15.77;69.30
74631;BME280;63138;55.082;38.804;2023-05-24T00:19:29;99839.47;;;15.76;69.51
74631;BME280;63138;55.082;38.804;2023-05-24T00:21:54;99836.94;;;15.74;69.34
74631;BME280;63138;55.082;38.804;2023-05-24T00:24:21;99831.84;;;15.71;69.40
74631;BME280;63138;55.082;38.804;2023-05-24T00:26:47;99827.84;;;15.74;69.06
74631;BME280;63138;55.082;38.804;2023-05-24T00:29:14;99835.66;;;15.77;69.11
74631;BME280;63138;55.082;38.804;2023-05-24T00:31:40;99834.59;;;15.78;69.19
74631;BME280;63138;55.082;38.804;2023-05-24T00:34:06;99827.66;;;15.75;69.47
74631;BME280;63138;55.082;38.804;2023-05-24T00:36:32;99827.44;;;15.77;69.13
74631;BME280;63138;55.082;38.804;2023-05-24T00:38:58;99824.69;;;15.77;69.24
74631;BME280;63138;55.082;38.804;2023-05-24T00:41:24;99820.50;;;15.74;69.17
74631;BME280;63138;55.082;38.804;2023-05-24T00:43:51;99821.97;;;15.77;69.25
74631;BME280;63138;55.082;38.804;2023-05-24T00:46:21;99821.97;;;15.77;69.39
74631;BME280;63138;55.082;38.804;2023-05-24T00:48:50;99810.19;;;15.76;69.28
74631;BME280;63138;55.082;38.804;2023-05-24T00:51:16;99812.28;;;15.74;69.52
74631;BME280;63138;55.082;38.804;2023-05-24T00:53:45;99812.69;;;15.71;69.74
74631;BME280;63138;55.082;38.804;2023-05-24T00:56:15;99799.66;;;15.66;70.10
74631;BME280;63138;55.082;38.804;2023-05-24T00:58:42;99808.69;;;15.67;70.20
74631;BME280;63138;55.082;38.804;2023-05-24T01:01:10;99814.38;;;15.65;70.20
74631;BME280;63138;55.082;38.804;2023-05-24T01:03:36;99800.47;;;15.60;70.19
74631;BME280;63138;55.082;38.804;2023-05-24T01:06:05;99808.06;;;15.58;70.46
74631;BME280;63138;55.082;38.804;2023-05-24T01:16:57;99802.38;;;15.46;70.79
74631;BME280;63138;55.082;38.804;2023-05-24T01:19:57;99805.38;;;15.45;70.57
74631;BME280;63138;55.082;38.804;2023-05-24T01:22:51;99811.47;;;15.40;70.96
74631;BME280;63138;55.082;38.804;2023-05-24T01:25:42;99803.03;;;15.35;70.98
74631;BME280;63138;55.082;38.804;2023-05-24T01:28:11;99808.72;;;15.34;71.20
74631;BME280;63138;55.082;38.804;2023-05-24T01:30:41;99803.91;;;15.29;71.07
74631;BME280;63138;55.082;38.804;2023-05-24T01:33:07;99796.53;;;15.29;71.05
74631;BME280;63138;55.082;38.804;2023-05-24T01:35:34;99800.75;;;15.25;71.40
74631;BME280;63138;55.082;38.804;2023-05-24T01:38:05;99797.78;;;15.20;71.49
74631;BME280;63138;55.082;38.804;2023-05-24T01:40:34;99797.16;;;15.18;71.47
74631;BME280;63138;55.082;38.804;2023-05-24T01:46:05;99788.75;;;15.20;71.72
74631;BME280;63138;55.082;38.804;2023-05-24T01:51:22;99793.78;;;15.03;71.59
74631;BME280;63138;55.082;38.804;2023-05-24T01:53:49;99791.47;;;15.00;71.99
74631;BME280;63138;55.082;38.804;2023-05-24T01:56:18;99786.22;;;14.98;71.78
74631;BME280;63138;55.082;38.804;2023-05-24T01:58:46;99778.63;;;14.94;71.96
74631;BME280;63138;55.082;38.804;2023-05-24T02:01:15;99780.53;;;14.93;71.98
74631;BME280;63138;55.082;38.804;2023-05-24T02:03:41;99779.69;;;14.93;72.09
74631;BME280;63138;55.082;38.804;2023-05-24T02:06:07;99776.97;;;14.86;72.30
74631;BME280;63138;55.082;38.804;2023-05-24T02:08:33;99786.41;;;14.83;72.65
74631;BME280;63138;55.082;38.804;2023-05-24T02:10:59;99787.66;;;14.81;72.66
74631;BME280;63138;55.082;38.804;2023-05-24T02:13:25;99790.59;;;14.79;72.96
74631;BME280;63138;55.082;38.804;2023-05-24T02:15:51;99780.72;;;14.78;73.23
74631;BME280;63138;55.082;38.804;2023-05-24T02:18:18;99785.56;;;14.76;73.36
74631;BME280;63138;55.082;38.804;2023-05-24T02:21:04;99783.25;;;14.73;73.54
74631;BME280;63138;55.082;38.804;2023-05-24T02:23:30;99787.44;;;14.76;73.98
74631;BME280;63138;55.082;38.804;2023-05-24T02:25:58;99767.69;;;14.74;73.97
74631;BME280;63138;55.082;38.804;2023-05-24T02:28:26;99777.34;;;14.76;74.06
74631;BME280;63138;55.082;38.804;2023-05-24T02:30:52;99780.72;;;14.78;74.03
74631;BME280;63138;55.082;38.804;2023-05-24T02:33:18;99773.56;;;14.77;74.13
74631;BME280;63138;55.082;38.804;2023-05-24T02:35:45;99777.78;;;14.80;74.38
74631;BME280;63138;55.082;38.804;2023-05-24T02:38:11;99778.19;;;14.83;74.39
74631;BME280;63138;55.082;38.804;2023-05-24T02:40:37;99753.81;;;14.82;74.18
74631;BME280;63138;55.082;38.804;2023-05-24T02:43:03;99770.88;;;14.84;74.35
74631;BME280;63138;55.082;38.804;2023-05-24T02:45:29;99768.56;;;14.87;74.34
74631;BME280;63138;55.082;38.804;2023-05-24T02:47:55;99770.63;;;14.85;74.56
74631;BME280;63138;55.082;38.804;2023-05-24T02:50:21;99770.63;;;14.85;74.59
74631;BME280;63138;55.082;38.804;2023-05-24T02:52:47;99756.13;;;14.85;74.86
74631;BME280;63138;55.082;38.804;2023-05-24T02:55:13;99754.88;;;14.87;74.91
74631;BME280;63138;55.082;38.804;2023-05-24T02:57:40;99766.00;;;14.93;75.03
74631;BME280;63138;55.082;38.804;2023-05-24T03:00:06;99750.69;;;14.91;75.13
74631;BME280;63138;55.082;38.804;2023-05-24T03:02:36;99766.84;;;15.00;75.18
74631;BME280;63138;55.082;38.804;2023-05-24T03:05:04;99753.84;;;15.02;75.25
74631;BME280;63138;55.082;38.804;2023-05-24T03:07:31;99743.09;;;15.00;75.33
74631;BME280;63138;55.082;38.804;2023-05-24T03:09:57;99738.06;;;14.97;75.45
74631;BME280;63138;55.082;38.804;2023-05-24T03:12:25;99755.31;;;15.04;75.75
74631;BME280;63138;55.082;38.804;2023-05-24T03:14:50;99742.03;;;15.01;75.79
74631;BME280;63138;55.082;38.804;2023-05-24T03:17:16;99756.75;;;15.07;75.45
74631;BME280;63138;55.082;38.804;2023-05-24T03:19:43;99756.34;;;15.10;75.84
74631;BME280;63138;55.082;38.804;2023-05-24T03:22:09;99741.63;;;15.11;75.65
74631;BME280;63138;55.082;38.804;2023-05-24T03:24:36;99756.34;;;15.17;75.65
74631;BME280;63138;55.082;38.804;2023-05-24T03:27:21;99749.59;;;15.19;75.55
74631;BME280;63138;55.082;38.804;2023-05-24T03:29:49;99752.75;;;15.23;75.66
74631;BME280;63138;55.082;38.804;2023-05-24T03:32:16;99746.25;;;15.24;75.66
74631;BME280;63138;55.082;38.804;2023-05-24T03:34:42;99744.97;;;15.26;75.56
74631;BME280;63138;55.082;38.804;2023-05-24T03:37:08;99750.03;;;15.29;75.27
74631;BME280;63138;55.082;38.804;2023-05-24T03:39:35;99743.69;;;15.36;75.34
74631;BME280;63138;55.082;38.804;2023-05-24T03:42:23;99760.94;;;15.43;75.24
74631;BME280;63138;55.082;38.804;2023-05-24T03:44:51;99761.81;;;15.43;74.74
74631;BME280;63138;55.082;38.804;2023-05-24T03:47:17;99756.13;;;15.45;75.15
74631;BME280;63138;55.082;38.804;2023-05-24T03:49:43;99757.38;;;15.49;74.73
74631;BME280;63138;55.082;38.804;2023-05-24T03:52:09;99754.84;;;15.54;74.57
74631;BME280;63138;55.082;38.804;2023-05-24T03:54:35;99758.59;;;15.53;74.60
74631;BME280;63138;55.082;38.804;2023-05-24T03:57:00;99751.66;;;15.57;75.05
74631;BME280;63138;55.082;38.804;2023-05-24T03:59:27;99759.00;;;15.63;74.45
74631;BME280;63138;55.082;38.804;2023-05-24T04:01:53;99757.72;;;15.73;74.40
74631;BME280;63138;55.082;38.804;2023-05-24T04:04:19;99764.88;;;15.80;73.91
74631;BME280;63138;55.082;38.804;2023-05-24T04:06:45;99754.97;;;15.86;74.03
74631;BME280;63138;55.082;38.804;2023-05-24T04:09:13;99757.06;;;15.97;73.49
74631;BME280;63138;55.082;38.804;2023-05-24T04:11:38;99755.53;;;16.08;73.11
74631;BME280;63138;55.082;38.804;2023-05-24T04:14:04;99764.38;;;16.10;72.68
74631;BME280;63138;55.082;38.804;2023-05-24T04:16:31;99757.38;;;16.21;72.21
74631;BME280;63138;55.082;38.804;2023-05-24T04:19:17;99759.66;;;16.24;71.76
74631;BME280;63138;55.082;38.804;2023-05-24T04:21:43;99767.25;;;16.22;71.79
74631;BME280;63138;55.082;38.804;2023-05-24T04:24:28;99766.22;;;16.23;72.12
74631;BME280;63138;55.082;38.804;2023-05-24T04:26:54;99763.66;;;16.28;71.69
74631;BME280;63138;55.082;38.804;2023-05-24T04:29:20;99772.91;;;16.27;71.75
74631;BME280;63138;55.082;38.804;2023-05-24T04:31:46;99775.41;;;16.35;71.67
74631;BME280;63138;55.082;38.804;2023-05-24T04:34:13;99775.41;;;16.35;71.65
74631;BME280;63138;55.082;38.804;2023-05-24T04:36:58;99776.34;;;16.54;71.02
74631;BME280;63138;55.082;38.804;2023-05-24T04:39:24;99786.25;;;16.62;70.74
74631;BME280;63138;55.082;38.804;2023-05-24T04:41:50;99791.19;;;16.78;70.28
74631;BME280;63138;55.082;38.804;2023-05-24T04:47:02;99798.22;;;16.99;69.90
74631;BME280;63138;55.082;38.804;2023-05-24T04:49:46;99804.22;;;16.90;69.85
74631;BME280;63138;55.082;38.804;2023-05-24T04:52:12;99804.88;;;16.85;69.92
74631;BME280;63138;55.082;38.804;2023-05-24T04:54:37;99810.75;;;16.89;69.62
74631;BME280;63138;55.082;38.804;2023-05-24T04:57:03;99801.84;;;17.00;69.11
74631;BME280;63138;55.082;38.804;2023-05-24T04:59:29;99804.75;;;17.05;69.01
74631;BME280;63138;55.082;38.804;2023-05-24T05:01:55;99803.06;;;17.04;68.95
74631;BME280;63138;55.082;38.804;2023-05-24T05:04:40;99801.69;;;17.20;68.67
74631;BME280;63138;55.082;38.804;2023-05-24T05:07:08;99794.63;;;17.31;68.26
74631;BME280;63138;55.082;38.804;2023-05-24T05:09:34;99796.00;;;17.40;68.04
74631;BME280;63138;55.082;38.804;2023-05-24T05:12:00;99795.06;;;17.28;67.51
74631;BME280;63138;55.082;38.804;2023-05-24T05:14:26;99796.97;;;17.27;67.94
74631;BME280;63138;55.082;38.804;2023-05-24T05:17:12;99798.38;;;17.36;67.87
74631;BME280;63138;55.082;38.804;2023-05-24T05:22:22;99801.72;;;17.38;67.45
74631;BME280;63138;55.082;38.804;2023-05-24T05:24:48;99798.75;;;17.40;67.46
74631;BME280;63138;55.082;38.804;2023-05-24T05:27:14;99791.47;;;17.52;67.52
74631;BME280;63138;55.082;38.804;2023-05-24T05:29:40;99794.69;;;17.68;67.05
74631;BME280;63138;55.082;38.804;2023-05-24T05:32:06;99792.09;;;17.73;66.96
74631;BME280;63138;55.082;38.804;2023-05-24T05:37:16;99807.69;;;17.79;66.12
74631;BME280;63138;55.082;38.804;2023-05-24T05:39:42;99798.25;;;17.93;65.84
74631;BME280;63138;55.082;38.804;2023-05-24T05:42:08;99791.38;;;18.03;65.65
74631;BME280;63138;55.082;38.804;2023-05-24T05:44:33;99788.47;;;18.16;65.52
74631;BME280;63138;55.082;38.804;2023-05-24T05:47:19;99785.19;;;18.26;65.30
74631;BME280;63138;55.082;38.804;2023-05-24T05:52:31;99788.31;;;18.29;65.11
74631;BME280;63138;55.082;38.804;2023-05-24T05:58:18;99786.66;;;18.70;64.16
74631;BME280;63138;55.082;38.804;2023-05-24T06:01:03;99773.97;;;18.88;63.46
74631;BME280;63138;55.082;38.804;2023-05-24T06:03:29;99782.22;;;18.88;63.45
74631;BME280;63138;55.082;38.804;2023-05-24T06:05:55;99777.22;;;19.08;62.53
74631;BME280;63138;55.082;38.804;2023-05-24T06:08:21;99776.72;;;18.88;62.89
74631;BME280;63138;55.082;38.804;2023-05-24T06:11:05;99775.84;;;19.18;62.16
74631;BME280;63138;55.082;38.804;2023-05-24T06:13:31;99768.53;;;19.47;61.23
74631;BME280;63138;55.082;38.804;2023-05-24T06:16:15;99771.78;;;19.56;60.78
74631;BME280;63138;55.082;38.804;2023-05-24T06:18:42;99772.50;;;19.86;60.03
74631;BME280;63138;55.082;38.804;2023-05-24T06:21:08;99776.63;;;20.13;58.77
74631;BME280;63138;55.082;38.804;2023-05-24T06:23:38;99768.72;;;20.45;57.40
74631;BME280;63138;55.082;38.804;2023-05-24T06:26:05;99769.78;;;20.15;56.75
74631;BME280;63138;55.082;38.804;2023-05-24T06:28:33;99780.19;;;20.66;55.99
74631;BME280;63138;55.082;38.804;2023-05-24T06:30:59;99771.78;;;20.89;55.67
74631;BME280;63138;55.082;38.804;2023-05-24T06:33:25;99769.06;;;21.23;54.70
74631;BME280;63138;55.082;38.804;2023-05-24T06:35:52;99780.34;;;21.55;53.04
74631;BME280;63138;55.082;38.804;2023-05-24T06:38:17;99772.50;;;21.47;53.69
74631;BME280;63138;55.082;38.804;2023-05-24T06:40:43;99766.91;;;22.03;51.67
74631;BME280;63138;55.082;38.804;2023-05-24T06:43:09;99757.81;;;23.06;49.12
74631;BME280;63138;55.082;38.804;2023-05-24T06:45:39;99757.72;;;23.66;47.52
74631;BME280;63138;55.082;38.804;2023-05-24T06:48:05;99755.03;;;24.45;46.01
74631;BME280;63138;55.082;38.804;2023-05-24T06:50:31;99758.47;;;24.77;44.94
74631;BME280;63138;55.082;38.804;2023-05-24T06:53:16;99755.72;;;25.24;43.76
74631;BME280;63138;55.082;38.804;2023-05-24T06:55:42;99755.81;;;26.20;42.49
74631;BME280;63138;55.082;38.804;2023-05-24T06:58:46;99756.59;;;26.30;40.83
74631;BME280;63138;55.082;38.804;2023-05-24T07:01:12;99755.84;;;26.75;39.38
74631;BME280;63138;55.082;38.804;2023-05-24T07:03:39;99754.81;;;27.00;39.23
74631;BME280;63138;55.082;38.804;2023-05-24T07:06:05;99755.81;;;26.80;38.83
74631;BME280;63138;55.082;38.804;2023-05-24T07:08:32;99761.84;;;26.92;39.46
74631;BME280;63138;55.082;38.804;2023-05-24T07:11:16;99765.63;;;27.06;38.51
74631;BME280;63138;55.082;38.804;2023-05-24T07:13:42;99759.16;;;26.77;39.17
74631;BME280;63138;55.082;38.804;2023-05-24T07:16:26;99755.94;;;27.33;38.80
74631;BME280;63138;55.082;38.804;2023-05-24T07:18:54;99761.91;;;26.82;38.47
74631;BME280;63138;55.082;38.804;2023-05-24T07:21:19;99751.75;;;27.01;38.89
74631;BME280;63138;55.082;38.804;2023-05-24T07:23:45;99748.34;;;26.70;39.14
74631;BME280;63138;55.082;38.804;2023-05-24T07:26:11;99753.97;;;26.60;39.19
74631;BME280;63138;55.082;38.804;2023-05-24T07:28:37;99735.38;;;27.29;38.33
74631;BME280;63138;55.082;38.804;2023-05-24T07:31:05;99745.91;;;28.15;36.45
74631;BME280;63138;55.082;38.804;2023-05-24T07:33:33;99748.47;;;26.94;38.12
74631;BME280;63138;55.082;38.804;2023-05-24T07:36:00;99755.56;;;26.16;39.96
74631;BME280;63138;55.082;38.804;2023-05-24T07:38:27;99748.13;;;26.56;39.64
74631;BME280;63138;55.082;38.804;2023-05-24T07:40:53;99754.53;;;26.62;39.25
74631;BME280;63138;55.082;38.804;2023-05-24T07:43:19;99753.66;;;26.06;40.38
74631;BME280;63138;55.082;38.804;2023-05-24T07:45:45;99751.69;;;26.07;40.81
74631;BME280;63138;55.082;38.804;2023-05-24T07:48:12;99760.19;;;26.36;40.26
74631;BME280;63138;55.082;38.804;2023-05-24T07:50:38;99760.25;;;26.26;40.78
74631;BME280;63138;55.082;38.804;2023-05-24T07:53:03;99751.19;;;26.00;40.87
74631;BME280;63138;55.082;38.804;2023-05-24T07:55:29;99769.06;;;25.11;42.54
74631;BME280;63138;55.082;38.804;2023-05-24T07:57:55;99754.63;;;25.40;42.06
74631;BME280;63138;55.082;38.804;2023-05-24T08:00:21;99749.00;;;25.81;41.29
74631;BME280;63138;55.082;38.804;2023-05-24T08:02:47;99746.75;;;25.83;41.72
74631;BME280;63138;55.082;38.804;2023-05-24T08:05:14;99746.50;;;25.74;41.93
74631;BME280;63138;55.082;38.804;2023-05-24T08:07:41;99753.72;;;25.81;41.69
74631;BME280;63138;55.082;38.804;2023-05-24T08:10:08;99744.22;;;26.57;40.67
74631;BME280;63138;55.082;38.804;2023-05-24T08:12:37;99753.94;;;26.10;41.06
74631;BME280;63138;55.082;38.804;2023-05-24T08:15:03;99751.25;;;25.69;42.01
74631;BME280;63138;55.082;38.804;2023-05-24T08:17:30;99756.81;;;25.59;41.97
74631;BME280;63138;55.082;38.804;2023-05-24T08:19:56;99755.09;;;25.93;41.46
74631;BME280;63138;55.082;38.804;2023-05-24T08:22:22;99759.63;;;26.39;40.49
74631;BME280;63138;55.082;38.804;2023-05-24T08:24:48;99762.84;;;26.07;41.06
74631;BME280;63138;55.082;38.804;2023-05-24T08:27:13;99762.63;;;25.93;41.28
74631;BME280;63138;55.082;38.804;2023-05-24T08:29:39;99763.50;;;25.68;42.15
74631;BME280;63138;55.082;38.804;2023-05-24T08:32:31;99754.00;;;25.79;42.05
74631;BME280;63138;55.082;38.804;2023-05-24T08:34:57;99755.44;;;25.20;42.62
74631;BME280;63138;55.082;38.804;2023-05-24T08:37:23;99757.94;;;24.91;43.25
74631;BME280;63138;55.082;38.804;2023-05-24T08:39:49;99762.91;;;24.68;44.18
74631;BME280;63138;55.082;38.804;2023-05-24T08:42:15;99764.03;;;25.75;42.21
74631;BME280;63138;55.082;38.804;2023-05-24T08:44:47;99763.50;;;25.42;43.09
74631;BME280;63138;55.082;38.804;2023-05-24T08:47:21;99764.84;;;25.81;42.53
74631;BME280;63138;55.082;38.804;2023-05-24T08:49:50;99760.94;;;25.97;42.23
74631;BME280;63138;55.082;38.804;2023-05-24T08:52:16;99766.84;;;25.60;42.38
74631;BME280;63138;55.082;38.804;2023-05-24T08:54:42;99770.38;;;25.96;41.66
74631;BME280;63138;55.082;38.804;2023-05-24T08:57:09;99772.94;;;25.51;42.06
74631;BME280;63138;55.082;38.804;2023-05-24T08:59:40;99773.75;;;25.72;41.52
74631;BME280;63138;55.082;38.804;2023-05-24T09:02:08;99775.16;;;25.65;42.23
74631;BME280;63138;55.082;38.804;2023-05-24T09:04:38;99777.69;;;25.61;42.67
74631;BME280;63138;55.082;38.804;2023-05-24T09:07:06;99771.28;;;25.30;43.44
74631;BME280;63138;55.082;38.804;2023-05-24T09:09:33;99772.66;;;25.48;43.57
74631;BME280;63138;55.082;38.804;2023-05-24T09:12:03;99763.22;;;25.08;44.01
74631;BME280;63138;55.082;38.804;2023-05-24T09:14:29;99772.66;;;25.48;43.45
74631;BME280;63138;55.082;38.804;2023-05-24T09:16:56;99770.16;;;25.00;44.63
74631;BME280;63138;55.082;38.804;2023-05-24T09:19:22;99769.47;;;24.36;45.62
74631;BME280;63138;55.082;38.804;2023-05-24T09:21:48;99764.13;;;24.19;46.11
74631;BME280;63138;55.082;38.804;2023-05-24T09:24:15;99763.41;;;23.87;46.87
74631;BME280;63138;55.082;38.804;2023-05-24T09:26:41;99768.03;;;23.76;47.26
74631;BME280;63138;55.082;38.804;2023-05-24T09:29:07;99763.75;;;23.95;46.82
74631;BME280;63138;55.082;38.804;2023-05-24T09:31:35;99766.91;;;23.72;47.09
74631;BME280;63138;55.082;38.804;2023-05-24T09:34:02;99769.53;;;23.51;47.32
74631;BME280;63138;55.082;38.804;2023-05-24T09:36:28;99773.84;;;23.74;46.82
74631;BME280;63138;55.082;38.804;2023-05-24T09:39:21;99774.66;;;23.75;46.97
74631;BME280;63138;55.082;38.804;2023-05-24T09:41:52;99785.72;;;23.64;47.23
74631;BME280;63138;55.082;38.804;2023-05-24T09:44:25;99780.91;;;23.17;47.89
74631;BME280;63138;55.082;38.804;2023-05-24T09:47:01;99792.56;;;23.19;48.08
74631;BME280;63138;55.082;38.804;2023-05-24T09:49:30;99783.19;;;23.25;48.43
74631;BME280;63138;55.082;38.804;2023-05-24T09:51:57;99796.56;;;23.34;47.80
74631;BME280;63138;55.082;38.804;2023-05-24T09:54:24;99800.09;;;23.61;47.01
74631;BME280;63138;55.082;38.804;2023-05-24T09:56:52;99807.53;;;23.98;46.80
74631;BME280;63138;55.082;38.804;2023-05-24T09:59:19;99805.69;;;24.14;46.19
74631;BME280;63138;55.082;38.804;2023-05-24T10:01:44;99810.47;;;24.24;46.10
74631;BME280;63138;55.082;38.804;2023-05-24T10:04:11;99808.88;;;24.43;45.46
74631;BME280;63138;55.082;38.804;2023-05-24T10:06:40;99808.00;;;24.28;45.97
74631;BME280;63138;55.082;38.804;2023-05-24T10:09:07;99809.94;;;24.32;45.87
74631;BME280;63138;55.082;38.804;2023-05-24T10:11:35;99814.25;;;24.02;46.21
74631;BME280;63138;55.082;38.804;2023-05-24T10:14:03;99819.44;;;23.89;46.47
74631;BME280;63138;55.082;38.804;2023-05-24T10:16:31;99827.28;;;23.64;46.89
74631;BME280;63138;55.082;38.804;2023-05-24T10:18:58;99832.00;;;23.32;47.26
74631;BME280;63138;55.082;38.804;2023-05-24T10:21:28;99831.34;;;23.19;48.06
74631;BME280;63138;55.082;38.804;2023-05-24T10:23:58;99832.22;;;23.25;48.00
74631;BME280;63138;55.082;38.804;2023-05-24T10:26:42;99835.97;;;23.08;48.66
74631;BME280;63138;55.082;38.804;2023-05-24T10:29:18;99833.72;;;22.83;48.77
74631;BME280;63138;55.082;38.804;2023-05-24T10:31:50;99843.50;;;22.91;48.54
74631;BME280;63138;55.082;38.804;2023-05-24T10:34:16;99841.22;;;23.10;48.45
74631;BME280;63138;55.082;38.804;2023-05-24T10:36:43;99833.47;;;23.39;47.92
74631;BME280;63138;55.082;38.804;2023-05-24T10:39:10;99826.31;;;23.48;48.02
74631;BME280;63138;55.082;38.804;2023-05-24T10:41:40;99843.47;;;23.45;48.38
74631;BME280;63138;55.082;38.804;2023-05-24T10:44:17;99849.31;;;23.49;48.76
74631;BME280;63138;55.082;38.804;2023-05-24T10:47:15;99849.94;;;23.56;48.49
74631;BME280;63138;55.082;38.804;2023-05-24T10:49:54;99856.31;;;23.57;48.14
74631;BME280;63138;55.082;38.804;2023-05-24T10:52:33;99851.06;;;23.60;48.87
74631;BME280;63138;55.082;38.804;2023-05-24T10:55:04;99854.03;;;23.81;47.79
74631;BME280;63138;55.082;38.804;2023-05-24T10:57:33;99839.97;;;23.60;48.13
74631;BME280;63138;55.082;38.804;2023-05-24T11:03:01;99847.69;;;23.85;47.90
74631;BME280;63138;55.082;38.804;2023-05-24T11:05:47;99853.97;;;23.76;48.24
74631;BME280;63138;55.082;38.804;2023-05-24T11:08:31;99854.13;;;23.96;48.16
74631;BME280;63138;55.082;38.804;2023-05-24T11:11:25;99849.50;;;24.12;47.92
74631;BME280;63138;55.082;38.804;2023-05-24T11:13:56;99857.56;;;24.14;47.57
74631;BME280;63138;55.082;38.804;2023-05-24T11:16:37;99855.63;;;23.77;48.26
74631;BME280;63138;55.082;38.804;2023-05-24T11:19:14;99848.03;;;23.99;48.15
74631;BME280;63138;55.082;38.804;2023-05-24T11:21:43;99845.38;;;23.77;48.26
74631;BME280;63138;55.082;38.804;2023-05-24T11:24:10;99843.59;;;23.98;47.76
74631;BME280;63138;55.082;38.804;2023-05-24T11:26:38;99849.25;;;24.14;47.95
74631;BME280;63138;55.082;38.804;2023-05-24T11:29:03;99850.22;;;24.45;47.09
74631;BME280;63138;55.082;38.804;2023-05-24T11:31:30;99850.50;;;24.49;46.90
74631;BME280;63138;55.082;38.804;2023-05-24T11:33:56;99852.63;;;24.26;47.02
74631;BME280;63138;55.082;38.804;2023-05-24T11:36:22;99848.16;;;24.20;46.58
74631;BME280;63138;55.082;38.804;2023-05-24T11:38:49;99851.44;;;24.12;46.38
74631;BME280;63138;55.082;38.804;2023-05-24T11:41:16;99848.00;;;23.94;46.92
74631;BME280;63138;55.082;38.804;2023-05-24T11:43:44;99844.28;;;24.21;46.61
74631;BME280;63138;55.082;38.804;2023-05-24T11:46:11;99838.53;;;24.33;45.83
74631;BME280;63138;55.082;38.804;2023-05-24T11:48:38;99849.97;;;24.52;45.98
74631;BME280;63138;55.082;38.804;2023-05-24T11:51:05;99841.63;;;24.47;45.45
74631;BME280;63138;55.082;38.804;2023-05-24T11:53:31;99841.00;;;24.34;45.47
74631;BME280;63138;55.082;38.804;2023-05-24T11:55:58;99846.78;;;24.22;45.82
74631;BME280;63138;55.082;38.804;2023-05-24T11:58:34;99837.94;;;24.31;46.54
74631;BME280;63138;55.082;38.804;2023-05-24T12:01:03;99835.50;;;24.39;45.65
74631;BME280;63138;55.082;38.804;2023-05-24T12:03:31;99845.69;;;24.87;44.72
74631;BME280;63138;55.082;38.804;2023-05-24T12:05:58;99839.00;;;24.83;44.77
74631;BME280;63138;55.082;38.804;2023-05-24T12:08:24;99839.78;;;24.63;44.90
74631;BME280;63138;55.082;38.804;2023-05-24T12:10:51;99830.50;;;24.41;45.32
74631;BME280;63138;55.082;38.804;2023-05-24T12:13:22;99828.00;;;24.45;45.24
74631;BME280;63138;55.082;38.804;2023-05-24T12:15:50;99830.63;;;24.67;44.82
74631;BME280;63138;55.082;38.804;2023-05-24T12:18:22;99829.31;;;25.00;44.23
74631;BME280;63138;55.082;38.804;2023-05-24T12:20:49;99826.31;;;25.28;44.19
74631;BME280;63138;55.082;38.804;2023-05-24T12:23:18;99826.84;;;25.19;44.41
74631;BME280;63138;55.082;38.804;2023-05-24T12:25:45;99825.78;;;25.31;44.11
74631;BME280;63138;55.082;38.804;2023-05-24T12:28:11;99830.50;;;25.25;43.97
74631;BME280;63138;55.082;38.804;2023-05-24T12:30:37;99832.69;;;25.23;43.48
74631;BME280;63138;55.082;38.804;2023-05-24T12:33:11;99826.72;;;24.58;44.54
74631;BME280;63138;55.082;38.804;2023-05-24T12:35:39;99830.94;;;24.81;44.31
74631;BME280;63138;55.082;38.804;2023-05-24T12:38:08;99830.69;;;24.88;43.57
74631;BME280;63138;55.082;38.804;2023-05-24T12:40:35;99836.81;;;25.15;43.58
74631;BME280;63138;55.082;38.804;2023-05-24T12:43:04;99831.50;;;24.88;44.14
74631;BME280;63138;55.082;38.804;2023-05-24T12:45:30;99816.25;;;25.06;43.68
74631;BME280;63138;55.082;38.804;2023-05-24T12:47:58;99829.59;;;24.94;44.20
74631;BME280;63138;55.082;38.804;2023-05-24T12:50:25;99833.50;;;25.13;43.78
74631;BME280;63138;55.082;38.804;2023-05-24T12:52:52;99825.72;;;25.15;44.33
74631;BME280;63138;55.082;38.804;2023-05-24T12:55:24;99820.69;;;24.97;44.23
74631;BME280;63138;55.082;38.804;2023-05-24T12:57:52;99817.06;;;24.86;44.71
74631;BME280;63138;55.082;38.804;2023-05-24T13:00:21;99812.66;;;24.85;44.27
74631;BME280;63138;55.082;38.804;2023-05-24T13:02:48;99830.78;;;24.45;44.17
74631;BME280;63138;55.082;38.804;2023-05-24T13:05:14;99825.72;;;24.27;45.21
74631;BME280;63138;55.082;38.804;2023-05-24T13:07:44;99827.63;;;24.21;45.82
74631;BME280;63138;55.082;38.804;2023-05-24T13:10:11;99822.09;;;24.21;45.60
74631;BME280;63138;55.082;38.804;2023-05-24T13:12:37;99810.88;;;23.95;45.66
74631;BME280;63138;55.082;38.804;2023-05-24T13:15:04;99826.25;;;23.76;46.02
74631;BME280;63138;55.082;38.804;2023-05-24T13:17:31;99822.75;;;23.53;46.08
74631;BME280;63138;55.082;38.804;2023-05-24T13:20:01;99832.81;;;23.64;46.16
74631;BME280;63138;55.082;38.804;2023-05-24T13:22:33;99837.09;;;23.45;45.50
74631;BME280;63138;55.082;38.804;2023-05-24T13:25:03;99825.50;;;23.48;46.35
74631;BME280;63138;55.082;38.804;2023-05-24T13:27:33;99822.78;;;23.58;46.47
74631;BME280;63138;55.082;38.804;2023-05-24T13:30:06;99823.13;;;23.67;46.42
74631;BME280;63138;55.082;38.804;2023-05-24T13:32:32;99832.31;;;23.73;46.37